Danbury, Texas
Current Conditions -  °F | °C
As of 8:17 AM on Friday 19 Dec 2014 (Local Time) from KLBX Reporting Station
Light Rain Light Rain  
Wind Chill: 60°   Ceiling: 1300
Heat Index: 60°   Visibility: 10mi
Dew Point: 60°   Wind: 10mph
Humidity: 100%   Direction: 70°ENE
Pressure: 30.01"   Gusts: NA
Location:  29.23°N, 95.34°W
Report Text: KLBX 191417Z AUTO 07009KT 10SM -RA SCT008 BKN013 OVC018 16/16 A3001 RMK AO2 P0001 T01560156
Loading
Personal Weather Stations






























Interactive Weather Map New forecast layout! Learn more

10-Day Weather Forecast

Advertisements
Track Severe Weather on mobile